sensor_id;sensor_type;location;lat;lon;timestamp;temperature;humidity
14769;DHT22;7476;49.404;11.152;2022-11-15T00:00:28;6.40;99.90
14769;DHT22;7476;49.404;11.152;2022-11-15T00:02:55;6.30;99.90
14769;DHT22;7476;49.404;11.152;2022-11-15T00:05:22;6.20;99.90
14769;DHT22;7476;49.404;11.152;2022-11-15T00:07:49;6.10;99.90
14769;DHT22;7476;49.404;11.152;2022-11-15T00:10:17;6.10;99.90
14769;DHT22;7476;49.404;11.152;2022-11-15T00:12:44;6.00;99.90
14769;DHT22;7476;49.404;11.152;2022-11-15T00:15:11;5.90;99.90
14769;DHT22;7476;49.404;11.152;2022-11-15T00:17:37;5.90;99.90
14769;DHT22;7476;49.404;11.152;2022-11-15T00:20:05;5.90;99.90
14769;DHT22;7476;49.404;11.152;2022-11-15T00:22:32;5.90;99.90
14769;DHT22;7476;49.404;11.152;2022-11-15T00:24:59;5.90;99.90
14769;DHT22;7476;49.404;11.152;2022-11-15T00:27:27;6.00;99.90
14769;DHT22;7476;49.404;11.152;2022-11-15T00:29:54;6.10;99.90
14769;DHT22;7476;49.404;11.152;2022-11-15T00:32:21;6.20;99.90
14769;DHT22;7476;49.404;11.152;2022-11-15T00:34:47;6.20;99.90
14769;DHT22;7476;49.404;11.152;2022-11-15T00:37:14;6.30;99.90
14769;DHT22;7476;49.404;11.152;2022-11-15T00:39:41;6.40;99.90
14769;DHT22;7476;49.404;11.152;2022-11-15T00:42:08;6.40;99.90
14769;DHT22;7476;49.404;11.152;2022-11-15T00:44:36;6.40;99.90
14769;DHT22;7476;49.404;11.152;2022-11-15T00:47:02;6.40;99.90
14769;DHT22;7476;49.404;11.152;2022-11-15T00:49:29;6.30;99.90
14769;DHT22;7476;49.404;11.152;2022-11-15T00:51:56;6.30;99.90
14769;DHT22;7476;49.404;11.152;2022-11-15T00:54:23;6.20;99.90
14769;DHT22;7476;49.404;11.152;2022-11-15T00:56:49;6.30;99.90
14769;DHT22;7476;49.404;11.152;2022-11-15T00:59:16;6.10;99.90
14769;DHT22;7476;49.404;11.152;2022-11-15T01:01:44;6.00;99.90
14769;DHT22;7476;49.404;11.152;2022-11-15T01:04:11;5.80;99.90
14769;DHT22;7476;49.404;11.152;2022-11-15T01:06:37;5.80;99.90
14769;DHT22;7476;49.404;11.152;2022-11-15T01:09:04;5.80;99.90
14769;DHT22;7476;49.404;11.152;2022-11-15T01:11:31;5.70;99.90
14769;DHT22;7476;49.404;11.152;2022-11-15T01:13:57;5.70;99.90
14769;DHT22;7476;49.404;11.152;2022-11-15T01:16:24;5.70;99.90
14769;DHT22;7476;49.404;11.152;2022-11-15T01:18:52;5.60;99.90
14769;DHT22;7476;49.404;11.152;2022-11-15T01:21:19;5.60;99.90
14769;DHT22;7476;49.404;11.152;2022-11-15T01:23:46;5.40;99.90
14769;DHT22;7476;49.404;11.152;2022-11-15T01:26:14;5.40;99.90
14769;DHT22;7476;49.404;11.152;2022-11-15T01:28:41;5.50;99.90
14769;DHT22;7476;49.404;11.152;2022-11-15T01:31:12;5.60;99.90
14769;DHT22;7476;49.404;11.152;2022-11-15T01:33:39;5.50;99.90
14769;DHT22;7476;49.404;11.152;2022-11-15T01:36:10;5.60;99.90
14769;DHT22;7476;49.404;11.152;2022-11-15T01:38:37;5.50;99.90
14769;DHT22;7476;49.404;11.152;2022-11-15T01:41:04;5.40;99.90
14769;DHT22;7476;49.404;11.152;2022-11-15T01:43:32;5.20;99.90
14769;DHT22;7476;49.404;11.152;2022-11-15T01:46:02;5.00;99.90
14769;DHT22;7476;49.404;11.152;2022-11-15T01:48:32;4.90;99.90
14769;DHT22;7476;49.404;11.152;2022-11-15T01:51:01;4.80;99.90
14769;DHT22;7476;49.404;11.152;2022-11-15T01:53:32;4.70;99.90
14769;DHT22;7476;49.404;11.152;2022-11-15T01:56:02;4.50;99.90
14769;DHT22;7476;49.404;11.152;2022-11-15T01:58:30;4.30;99.90
14769;DHT22;7476;49.404;11.152;2022-11-15T02:00:57;4.00;99.90
14769;DHT22;7476;49.404;11.152;2022-11-15T02:03:29;4.10;99.90
14769;DHT22;7476;49.404;11.152;2022-11-15T02:05:57;4.10;99.90
14769;DHT22;7476;49.404;11.152;2022-11-15T02:08:24;4.20;99.90
14769;DHT22;7476;49.404;11.152;2022-11-15T02:10:53;4.10;99.90
14769;DHT22;7476;49.404;11.152;2022-11-15T02:13:20;4.10;99.90
14769;DHT22;7476;49.404;11.152;2022-11-15T02:15:54;4.10;99.90
14769;DHT22;7476;49.404;11.152;2022-11-15T02:18:26;4.20;99.90
14769;DHT22;7476;49.404;11.152;2022-11-15T02:21:13;4.40;99.90
14769;DHT22;7476;49.404;11.152;2022-11-15T02:24:01;4.50;99.90
14769;DHT22;7476;49.404;11.152;2022-11-15T02:27:01;4.50;99.90
14769;DHT22;7476;49.404;11.152;2022-11-15T02:29:46;4.50;99.90
14769;DHT22;7476;49.404;11.152;2022-11-15T02:32:20;4.60;99.90
14769;DHT22;7476;49.404;11.152;2022-11-15T02:34:59;4.80;99.90
14769;DHT22;7476;49.404;11.152;2022-11-15T02:37:35;4.80;99.90
14769;DHT22;7476;49.404;11.152;2022-11-15T02:40:10;4.90;99.90
14769;DHT22;7476;49.404;11.152;2022-11-15T02:42:42;5.00;99.90
14769;DHT22;7476;49.404;11.152;2022-11-15T02:45:30;5.00;99.90
14769;DHT22;7476;49.404;11.152;2022-11-15T02:48:01;5.00;99.90
14769;DHT22;7476;49.404;11.152;2022-11-15T02:50:30;5.00;99.90
14769;DHT22;7476;49.404;11.152;2022-11-15T02:52:58;5.00;99.90
14769;DHT22;7476;49.404;11.152;2022-11-15T02:55:30;5.10;99.90
14769;DHT22;7476;49.404;11.152;2022-11-15T02:58:12;5.20;99.90
14769;DHT22;7476;49.404;11.152;2022-11-15T03:00:48;5.20;99.90
14769;DHT22;7476;49.404;11.152;2022-11-15T03:03:46;5.30;99.90
14769;DHT22;7476;49.404;11.152;2022-11-15T03:06:22;5.40;99.90
14769;DHT22;7476;49.404;11.152;2022-11-15T03:08:59;5.40;99.90
14769;DHT22;7476;49.404;11.152;2022-11-15T03:11:29;5.50;99.90
14769;DHT22;7476;49.404;11.152;2022-11-15T03:14:05;5.40;99.90
14769;DHT22;7476;49.404;11.152;2022-11-15T03:16:37;5.30;99.90
14769;DHT22;7476;49.404;11.152;2022-11-15T03:19:12;5.10;99.90
14769;DHT22;7476;49.404;11.152;2022-11-15T03:21:40;4.80;99.90
14769;DHT22;7476;49.404;11.152;2022-11-15T03:24:08;4.80;99.90
14769;DHT22;7476;49.404;11.152;2022-11-15T03:26:38;4.80;99.90
14769;DHT22;7476;49.404;11.152;2022-11-15T03:29:11;4.60;99.90
14769;DHT22;7476;49.404;11.152;2022-11-15T03:31:42;4.60;99.90
14769;DHT22;7476;49.404;11.152;2022-11-15T03:34:20;4.50;99.90
14769;DHT22;7476;49.404;11.152;2022-11-15T03:36:50;4.40;99.90
14769;DHT22;7476;49.404;11.152;2022-11-15T03:39:17;4.60;99.90
14769;DHT22;7476;49.404;11.152;2022-11-15T03:41:48;4.50;99.90
14769;DHT22;7476;49.404;11.152;2022-11-15T03:44:23;4.60;99.90
14769;DHT22;7476;49.404;11.152;2022-11-15T03:46:57;4.70;99.90
14769;DHT22;7476;49.404;11.152;2022-11-15T03:49:28;4.70;99.90
14769;DHT22;7476;49.404;11.152;2022-11-15T03:51:57;4.80;99.90
14769;DHT22;7476;49.404;11.152;2022-11-15T03:54:24;4.90;99.90
14769;DHT22;7476;49.404;11.152;2022-11-15T03:56:51;5.00;99.90
14769;DHT22;7476;49.404;11.152;2022-11-15T03:59:18;5.00;99.90
14769;DHT22;7476;49.404;11.152;2022-11-15T04:01:45;4.90;99.90
14769;DHT22;7476;49.404;11.152;2022-11-15T04:04:12;4.90;99.90
14769;DHT22;7476;49.404;11.152;2022-11-15T04:06:40;4.80;99.90
14769;DHT22;7476;49.404;11.152;2022-11-15T04:09:07;4.70;99.90
14769;DHT22;7476;49.404;11.152;2022-11-15T04:11:33;4.80;99.90
14769;DHT22;7476;49.404;11.152;2022-11-15T04:14:00;4.80;99.90
14769;DHT22;7476;49.404;11.152;2022-11-15T04:16:27;4.70;99.90
14769;DHT22;7476;49.404;11.152;2022-11-15T04:18:54;4.60;99.90
14769;DHT22;7476;49.404;11.152;2022-11-15T04:21:34;4.70;99.90
14769;DHT22;7476;49.404;11.152;2022-11-15T04:24:20;4.90;99.90
14769;DHT22;7476;49.404;11.152;2022-11-15T04:26:46;4.80;99.90
14769;DHT22;7476;49.404;11.152;2022-11-15T04:29:13;4.60;99.90
14769;DHT22;7476;49.404;11.152;2022-11-15T04:31:57;4.50;99.90
14769;DHT22;7476;49.404;11.152;2022-11-15T04:34:24;4.30;99.90
14769;DHT22;7476;49.404;11.152;2022-11-15T04:36:51;4.30;99.90
14769;DHT22;7476;49.404;11.152;2022-11-15T04:39:36;4.00;99.90
14769;DHT22;7476;49.404;11.152;2022-11-15T04:42:03;3.90;99.90
14769;DHT22;7476;49.404;11.152;2022-11-15T04:44:30;3.80;99.90
14769;DHT22;7476;49.404;11.152;2022-11-15T04:46:56;3.80;99.90
14769;DHT22;7476;49.404;11.152;2022-11-15T04:49:23;3.70;99.90
14769;DHT22;7476;49.404;11.152;2022-11-15T04:51:50;3.80;99.90
14769;DHT22;7476;49.404;11.152;2022-11-15T04:54:16;3.60;99.90
14769;DHT22;7476;49.404;11.152;2022-11-15T04:56:45;3.50;99.90
14769;DHT22;7476;49.404;11.152;2022-11-15T04:59:11;3.20;99.90
14769;DHT22;7476;49.404;11.152;2022-11-15T05:01:38;3.40;99.90
14769;DHT22;7476;49.404;11.152;2022-11-15T05:04:05;3.50;99.90
14769;DHT22;7476;49.404;11.152;2022-11-15T05:06:47;3.20;99.90
14769;DHT22;7476;49.404;11.152;2022-11-15T05:09:13;3.20;99.90
14769;DHT22;7476;49.404;11.152;2022-11-15T05:11:41;3.10;99.90
14769;DHT22;7476;49.404;11.152;2022-11-15T05:14:09;3.10;99.90
14769;DHT22;7476;49.404;11.152;2022-11-15T05:16:36;3.10;99.90
14769;DHT22;7476;49.404;11.152;2022-11-15T05:19:03;3.10;99.90
14769;DHT22;7476;49.404;11.152;2022-11-15T05:21:30;3.10;99.90
14769;DHT22;7476;49.404;11.152;2022-11-15T05:23:57;3.30;99.90
14769;DHT22;7476;49.404;11.152;2022-11-15T05:26:24;3.50;99.90
14769;DHT22;7476;49.404;11.152;2022-11-15T05:28:54;3.60;99.90
14769;DHT22;7476;49.404;11.152;2022-11-15T05:31:23;3.70;99.90
14769;DHT22;7476;49.404;11.152;2022-11-15T05:33:51;3.60;99.90
14769;DHT22;7476;49.404;11.152;2022-11-15T05:36:21;3.60;99.90
14769;DHT22;7476;49.404;11.152;2022-11-15T05:38:51;3.70;99.90
14769;DHT22;7476;49.404;11.152;2022-11-15T05:41:20;4.00;99.90
14769;DHT22;7476;49.404;11.152;2022-11-15T05:43:49;4.10;99.90
14769;DHT22;7476;49.404;11.152;2022-11-15T05:46:16;4.20;99.90
14769;DHT22;7476;49.404;11.152;2022-11-15T05:48:47;4.30;99.90
14769;DHT22;7476;49.404;11.152;2022-11-15T05:51:16;4.40;99.90
14769;DHT22;7476;49.404;11.152;2022-11-15T05:53:44;4.60;99.90
14769;DHT22;7476;49.404;11.152;2022-11-15T05:56:12;4.70;99.90
14769;DHT22;7476;49.404;11.152;2022-11-15T05:58:40;4.70;99.90
14769;DHT22;7476;49.404;11.152;2022-11-15T06:01:07;4.70;99.90
14769;DHT22;7476;49.404;11.152;2022-11-15T06:03:34;4.70;99.90
14769;DHT22;7476;49.404;11.152;2022-11-15T06:06:02;4.70;99.90
14769;DHT22;7476;49.404;11.152;2022-11-15T06:08:29;4.90;99.90
14769;DHT22;7476;49.404;11.152;2022-11-15T06:10:56;4.90;99.90
14769;DHT22;7476;49.404;11.152;2022-11-15T06:13:22;4.90;99.90
14769;DHT22;7476;49.404;11.152;2022-11-15T06:15:49;4.80;99.90
14769;DHT22;7476;49.404;11.152;2022-11-15T06:18:16;4.80;99.90
14769;DHT22;7476;49.404;11.152;2022-11-15T06:20:43;4.60;99.90
14769;DHT22;7476;49.404;11.152;2022-11-15T06:23:11;4.50;99.90
14769;DHT22;7476;49.404;11.152;2022-11-15T06:25:38;4.50;99.90
14769;DHT22;7476;49.404;11.152;2022-11-15T06:28:05;4.50;99.90
14769;DHT22;7476;49.404;11.152;2022-11-15T06:30:32;4.50;99.90
14769;DHT22;7476;49.404;11.152;2022-11-15T06:33:00;4.50;99.90
14769;DHT22;7476;49.404;11.152;2022-11-15T06:35:27;4.50;99.90
14769;DHT22;7476;49.404;11.152;2022-11-15T06:37:54;4.50;99.90
14769;DHT22;7476;49.404;11.152;2022-11-15T06:40:22;4.30;99.90
14769;DHT22;7476;49.404;11.152;2022-11-15T06:42:49;4.30;99.90
14769;DHT22;7476;49.404;11.152;2022-11-15T06:45:16;4.20;99.90
14769;DHT22;7476;49.404;11.152;2022-11-15T06:47:45;4.20;99.90
14769;DHT22;7476;49.404;11.152;2022-11-15T06:50:13;4.10;99.90
14769;DHT22;7476;49.404;11.152;2022-11-15T06:52:39;4.00;99.90
14769;DHT22;7476;49.404;11.152;2022-11-15T06:55:07;4.00;99.90
14769;DHT22;7476;49.404;11.152;2022-11-15T06:57:36;4.10;99.90
14769;DHT22;7476;49.404;11.152;2022-11-15T07:00:04;4.20;99.90
14769;DHT22;7476;49.404;11.152;2022-11-15T07:02:31;4.40;99.90
14769;DHT22;7476;49.404;11.152;2022-11-15T07:04:57;4.40;99.90
14769;DHT22;7476;49.404;11.152;2022-11-15T07:07:24;4.50;99.90
14769;DHT22;7476;49.404;11.152;2022-11-15T07:09:51;4.50;99.90
14769;DHT22;7476;49.404;11.152;2022-11-15T07:12:18;4.40;99.90
14769;DHT22;7476;49.404;11.152;2022-11-15T07:14:47;4.50;99.90
14769;DHT22;7476;49.404;11.152;2022-11-15T07:17:13;4.50;99.90
14769;DHT22;7476;49.404;11.152;2022-11-15T07:19:40;4.80;99.90
14769;DHT22;7476;49.404;11.152;2022-11-15T07:22:07;5.00;99.90
14769;DHT22;7476;49.404;11.152;2022-11-15T07:24:33;5.10;99.90
14769;DHT22;7476;49.404;11.152;2022-11-15T07:27:00;5.20;99.90
14769;DHT22;7476;49.404;11.152;2022-11-15T07:29:27;5.60;99.90
14769;DHT22;7476;49.404;11.152;2022-11-15T07:31:55;5.80;99.90
14769;DHT22;7476;49.404;11.152;2022-11-15T07:34:22;5.90;99.90
14769;DHT22;7476;49.404;11.152;2022-11-15T07:36:49;6.00;99.90
14769;DHT22;7476;49.404;11.152;2022-11-15T07:39:16;6.10;99.90
14769;DHT22;7476;49.404;11.152;2022-11-15T07:41:43;6.40;99.90
14769;DHT22;7476;49.404;11.152;2022-11-15T07:44:10;6.50;99.90
14769;DHT22;7476;49.404;11.152;2022-11-15T07:46:36;6.70;99.90
14769;DHT22;7476;49.404;11.152;2022-11-15T07:49:04;7.00;99.90
14769;DHT22;7476;49.404;11.152;2022-11-15T07:51:31;7.20;99.90
14769;DHT22;7476;49.404;11.152;2022-11-15T07:53:58;7.50;99.90
14769;DHT22;7476;49.404;11.152;2022-11-15T07:56:25;7.60;99.90
14769;DHT22;7476;49.404;11.152;2022-11-15T07:58:52;7.80;99.90
14769;DHT22;7476;49.404;11.152;2022-11-15T08:01:19;7.90;99.90
14769;DHT22;7476;49.404;11.152;2022-11-15T08:03:45;8.10;99.90
14769;DHT22;7476;49.404;11.152;2022-11-15T08:06:13;8.40;99.90
14769;DHT22;7476;49.404;11.152;2022-11-15T08:08:40;8.60;99.90
14769;DHT22;7476;49.404;11.152;2022-11-15T08:11:07;8.80;99.90
14769;DHT22;7476;49.404;11.152;2022-11-15T08:13:35;9.10;99.90
14769;DHT22;7476;49.404;11.152;2022-11-15T08:16:02;9.30;99.90
14769;DHT22;7476;49.404;11.152;2022-11-15T08:18:30;9.50;99.90
14769;DHT22;7476;49.404;11.152;2022-11-15T08:20:59;9.60;99.90
14769;DHT22;7476;49.404;11.152;2022-11-15T08:23:27;9.80;99.90
14769;DHT22;7476;49.404;11.152;2022-11-15T08:25:59;9.90;99.90
14769;DHT22;7476;49.404;11.152;2022-11-15T08:28:27;10.10;99.90
14769;DHT22;7476;49.404;11.152;2022-11-15T08:30:53;10.40;99.90
14769;DHT22;7476;49.404;11.152;2022-11-15T08:33:20;10.60;99.90
14769;DHT22;7476;49.404;11.152;2022-11-15T08:35:47;10.90;99.90
14769;DHT22;7476;49.404;11.152;2022-11-15T08:38:14;10.90;99.90
14769;DHT22;7476;49.404;11.152;2022-11-15T08:40:42;11.00;99.90
14769;DHT22;7476;49.404;11.152;2022-11-15T08:43:09;11.10;99.90
14769;DHT22;7476;49.404;11.152;2022-11-15T08:45:36;11.30;99.90
14769;DHT22;7476;49.404;11.152;2022-11-15T08:48:03;11.50;99.90
14769;DHT22;7476;49.404;11.152;2022-11-15T08:50:31;11.70;99.90
14769;DHT22;7476;49.404;11.152;2022-11-15T08:53:02;11.80;99.90
14769;DHT22;7476;49.404;11.152;2022-11-15T08:55:30;11.80;99.90
14769;DHT22;7476;49.404;11.152;2022-11-15T08:57:58;11.80;99.90
14769;DHT22;7476;49.404;11.152;2022-11-15T09:00:25;11.90;99.90
14769;DHT22;7476;49.404;11.152;2022-11-15T09:02:52;12.10;99.90
14769;DHT22;7476;49.404;11.152;2022-11-15T09:05:19;12.30;99.90
14769;DHT22;7476;49.404;11.152;2022-11-15T09:07:45;12.40;99.90
14769;DHT22;7476;49.404;11.152;2022-11-15T09:10:12;12.40;99.90
14769;DHT22;7476;49.404;11.152;2022-11-15T09:12:39;12.60;99.90
14769;DHT22;7476;49.404;11.152;2022-11-15T09:15:08;12.70;99.90
14769;DHT22;7476;49.404;11.152;2022-11-15T09:17:35;12.70;99.90
14769;DHT22;7476;49.404;11.152;2022-11-15T09:20:02;12.80;99.90
14769;DHT22;7476;49.404;11.152;2022-11-15T09:22:30;12.80;99.90
14769;DHT22;7476;49.404;11.152;2022-11-15T09:24:56;12.80;99.90
14769;DHT22;7476;49.404;11.152;2022-11-15T09:27:27;12.90;99.90
14769;DHT22;7476;49.404;11.152;2022-11-15T09:29:54;13.10;99.90
14769;DHT22;7476;49.404;11.152;2022-11-15T09:32:22;13.10;99.90
14769;DHT22;7476;49.404;11.152;2022-11-15T09:34:49;13.10;99.90
14769;DHT22;7476;49.404;11.152;2022-11-15T09:37:16;13.20;99.90
14769;DHT22;7476;49.404;11.152;2022-11-15T09:39:42;13.30;99.90
14769;DHT22;7476;49.404;11.152;2022-11-15T09:42:27;13.30;99.90
14769;DHT22;7476;49.404;11.152;2022-11-15T09:45:12;13.40;99.90
14769;DHT22;7476;49.404;11.152;2022-11-15T09:47:54;13.60;99.90
14769;DHT22;7476;49.404;11.152;2022-11-15T09:50:31;13.60;99.90
14769;DHT22;7476;49.404;11.152;2022-11-15T09:52:57;13.80;99.90
14769;DHT22;7476;49.404;11.152;2022-11-15T09:55:32;13.70;99.90
14769;DHT22;7476;49.404;11.152;2022-11-15T09:58:09;13.60;99.90
14769;DHT22;7476;49.404;11.152;2022-11-15T10:00:40;13.80;99.90
14769;DHT22;7476;49.404;11.152;2022-11-15T10:03:12;13.80;99.90
14769;DHT22;7476;49.404;11.152;2022-11-15T10:05:42;14.00;99.90
14769;DHT22;7476;49.404;11.152;2022-11-15T10:11:10;14.50;99.90
14769;DHT22;7476;49.404;11.152;2022-11-15T10:13:43;14.70;99.90
14769;DHT22;7476;49.404;11.152;2022-11-15T10:16:21;14.80;99.90
14769;DHT22;7476;49.404;11.152;2022-11-15T10:19:00;14.80;99.90
14769;DHT22;7476;49.404;11.152;2022-11-15T10:21:35;15.00;99.90
14769;DHT22;7476;49.404;11.152;2022-11-15T10:24:10;15.20;99.90
14769;DHT22;7476;49.404;11.152;2022-11-15T10:26:38;15.60;99.90
14769;DHT22;7476;49.404;11.152;2022-11-15T10:29:05;15.60;99.90
14769;DHT22;7476;49.404;11.152;2022-11-15T10:31:32;16.00;99.90
14769;DHT22;7476;49.404;11.152;2022-11-15T10:34:11;15.80;99.90
14769;DHT22;7476;49.404;11.152;2022-11-15T10:36:44;16.30;99.90
14769;DHT22;7476;49.404;11.152;2022-11-15T10:39:12;16.80;99.90
14769;DHT22;7476;49.404;11.152;2022-11-15T10:41:40;17.00;99.90
14769;DHT22;7476;49.404;11.152;2022-11-15T10:44:21;16.40;99.90
14769;DHT22;7476;49.404;11.152;2022-11-15T10:47:05;16.90;99.90
14769;DHT22;7476;49.404;11.152;2022-11-15T10:49:34;16.50;99.90
14769;DHT22;7476;49.404;11.152;2022-11-15T10:52:03;16.50;99.90
14769;DHT22;7476;49.404;11.152;2022-11-15T10:54:37;16.50;99.90
14769;DHT22;7476;49.404;11.152;2022-11-15T10:57:08;17.00;99.90
14769;DHT22;7476;49.404;11.152;2022-11-15T10:59:37;17.40;99.90
14769;DHT22;7476;49.404;11.152;2022-11-15T11:02:29;17.50;99.90
14769;DHT22;7476;49.404;11.152;2022-11-15T11:04:58;17.60;99.90
14769;DHT22;7476;49.404;11.152;2022-11-15T11:07:28;17.70;99.90
14769;DHT22;7476;49.404;11.152;2022-11-15T11:10:00;18.30;99.90
14769;DHT22;7476;49.404;11.152;2022-11-15T11:12:28;17.30;99.90
14769;DHT22;7476;49.404;11.152;2022-11-15T11:14:57;17.70;99.90
14769;DHT22;7476;49.404;11.152;2022-11-15T11:17:32;18.70;99.90
14769;DHT22;7476;49.404;11.152;2022-11-15T11:20:07;18.90;99.90
14769;DHT22;7476;49.404;11.152;2022-11-15T11:22:41;19.00;99.90
14769;DHT22;7476;49.404;11.152;2022-11-15T11:25:21;19.60;99.90
14769;DHT22;7476;49.404;11.152;2022-11-15T11:28:04;20.00;99.50
14769;DHT22;7476;49.404;11.152;2022-11-15T11:30:42;20.30;99.90
14769;DHT22;7476;49.404;11.152;2022-11-15T11:33:16;20.20;98.80
14769;DHT22;7476;49.404;11.152;2022-11-15T11:35:57;20.30;98.00
14769;DHT22;7476;49.404;11.152;2022-11-15T11:38:39;20.10;98.60
14769;DHT22;7476;49.404;11.152;2022-11-15T11:41:15;20.50;98.40
14769;DHT22;7476;49.404;11.152;2022-11-15T11:43:53;20.60;97.90
14769;DHT22;7476;49.404;11.152;2022-11-15T11:46:42;21.10;97.00
14769;DHT22;7476;49.404;11.152;2022-11-15T11:49:18;20.60;96.90
14769;DHT22;7476;49.404;11.152;2022-11-15T11:51:51;20.80;97.40
14769;DHT22;7476;49.404;11.152;2022-11-15T11:54:22;19.70;97.70
14769;DHT22;7476;49.404;11.152;2022-11-15T11:56:53;19.50;99.40
14769;DHT22;7476;49.404;11.152;2022-11-15T11:59:32;20.40;98.10
14769;DHT22;7476;49.404;11.152;2022-11-15T12:02:07;20.10;97.90
14769;DHT22;7476;49.404;11.152;2022-11-15T12:04:40;20.40;96.90
14769;DHT22;7476;49.404;11.152;2022-11-15T12:07:15;20.60;97.40
14769;DHT22;7476;49.404;11.152;2022-11-15T12:09:53;21.40;96.00
14769;DHT22;7476;49.404;11.152;2022-11-15T12:12:28;21.50;95.70
14769;DHT22;7476;49.404;11.152;2022-11-15T12:14:59;21.60;96.50
14769;DHT22;7476;49.404;11.152;2022-11-15T12:17:29;21.50;95.70
14769;DHT22;7476;49.404;11.152;2022-11-15T12:19:58;21.40;95.80
14769;DHT22;7476;49.404;11.152;2022-11-15T12:22:35;21.40;95.40
14769;DHT22;7476;49.404;11.152;2022-11-15T12:25:07;20.90;96.10
14769;DHT22;7476;49.404;11.152;2022-11-15T12:27:38;20.70;96.50
14769;DHT22;7476;49.404;11.152;2022-11-15T12:30:10;20.80;96.50
14769;DHT22;7476;49.404;11.152;2022-11-15T12:32:39;21.60;95.80
14769;DHT22;7476;49.404;11.152;2022-11-15T12:35:21;21.90;96.20
14769;DHT22;7476;49.404;11.152;2022-11-15T12:37:51;22.00;95.60
14769;DHT22;7476;49.404;11.152;2022-11-15T12:40:28;21.20;95.40
14769;DHT22;7476;49.404;11.152;2022-11-15T12:46:12;21.00;96.10
14769;DHT22;7476;49.404;11.152;2022-11-15T12:48:48;21.30;95.50
14769;DHT22;7476;49.404;11.152;2022-11-15T12:51:16;20.70;96.10
14769;DHT22;7476;49.404;11.152;2022-11-15T12:53:44;20.40;96.90
14769;DHT22;7476;49.404;11.152;2022-11-15T12:56:23;19.80;97.60
14769;DHT22;7476;49.404;11.152;2022-11-15T12:58:53;20.10;97.30
14769;DHT22;7476;49.404;11.152;2022-11-15T13:01:56;20.90;96.80
14769;DHT22;7476;49.404;11.152;2022-11-15T13:04:26;22.50;94.90
14769;DHT22;7476;49.404;11.152;2022-11-15T13:06:54;23.40;94.10
14769;DHT22;7476;49.404;11.152;2022-11-15T13:12:52;23.90;93.30
14769;DHT22;7476;49.404;11.152;2022-11-15T13:15:34;24.90;91.70
14769;DHT22;7476;49.404;11.152;2022-11-15T13:18:33;23.70;92.00
14769;DHT22;7476;49.404;11.152;2022-11-15T13:21:01;22.30;94.10
14769;DHT22;7476;49.404;11.152;2022-11-15T13:23:52;20.80;96.00
14769;DHT22;7476;49.404;11.152;2022-11-15T13:26:19;19.60;98.20
14769;DHT22;7476;49.404;11.152;2022-11-15T13:28:49;19.00;98.70
14769;DHT22;7476;49.404;11.152;2022-11-15T13:31:28;18.20;99.60
14769;DHT22;7476;49.404;11.152;2022-11-15T13:33:59;17.50;99.90
14769;DHT22;7476;49.404;11.152;2022-11-15T13:36:29;17.10;99.90
14769;DHT22;7476;49.404;11.152;2022-11-15T13:39:00;16.90;99.90
14769;DHT22;7476;49.404;11.152;2022-11-15T13:41:30;16.70;99.90
14769;DHT22;7476;49.404;11.152;2022-11-15T13:43:59;16.50;99.90
14769;DHT22;7476;49.404;11.152;2022-11-15T13:46:27;16.60;99.90
14769;DHT22;7476;49.404;11.152;2022-11-15T13:48:56;16.40;99.90
14769;DHT22;7476;49.404;11.152;2022-11-15T13:51:31;16.40;99.90
14769;DHT22;7476;49.404;11.152;2022-11-15T13:54:03;16.30;99.90
14769;DHT22;7476;49.404;11.152;2022-11-15T13:56:33;16.30;99.90
14769;DHT22;7476;49.404;11.152;2022-11-15T13:59:08;16.80;99.90
14769;DHT22;7476;49.404;11.152;2022-11-15T14:01:35;17.80;99.90
14769;DHT22;7476;49.404;11.152;2022-11-15T14:04:03;18.90;99.90
14769;DHT22;7476;49.404;11.152;2022-11-15T14:06:30;19.60;99.90
14769;DHT22;7476;49.404;11.152;2022-11-15T14:11:59;19.40;99.90
14769;DHT22;7476;49.404;11.152;2022-11-15T14:14:28;19.40;99.90
14769;DHT22;7476;49.404;11.152;2022-11-15T14:16:57;18.90;99.90
14769;DHT22;7476;49.404;11.152;2022-11-15T14:19:36;18.40;99.90
14769;DHT22;7476;49.404;11.152;2022-11-15T14:22:25;18.10;99.90
14769;DHT22;7476;49.404;11.152;2022-11-15T14:25:14;17.70;99.90
14769;DHT22;7476;49.404;11.152;2022-11-15T14:27:42;17.70;99.90
14769;DHT22;7476;49.404;11.152;2022-11-15T14:30:14;17.70;99.90
14769;DHT22;7476;49.404;11.152;2022-11-15T14:32:44;17.60;99.90
14769;DHT22;7476;49.404;11.152;2022-11-15T14:35:16;17.30;99.90
14769;DHT22;7476;49.404;11.152;2022-11-15T14:37:43;17.20;99.90
14769;DHT22;7476;49.404;11.152;2022-11-15T14:40:13;17.80;99.90
14769;DHT22;7476;49.404;11.152;2022-11-15T14:42:41;18.60;99.90
14769;DHT22;7476;49.404;11.152;2022-11-15T14:45:12;19.10;99.90
14769;DHT22;7476;49.404;11.152;2022-11-15T14:47:41;18.60;99.90
14769;DHT22;7476;49.404;11.152;2022-11-15T14:50:11;17.60;99.90
14769;DHT22;7476;49.404;11.152;2022-11-15T14:52:38;16.40;99.90
14769;DHT22;7476;49.404;11.152;2022-11-15T14:55:15;15.30;99.90
14769;DHT22;7476;49.404;11.152;2022-11-15T14:57:43;14.50;99.90
14769;DHT22;7476;49.404;11.152;2022-11-15T15:00:12;13.80;99.90
14769;DHT22;7476;49.404;11.152;2022-11-15T15:02:40;13.20;99.90
14769;DHT22;7476;49.404;11.152;2022-11-15T15:05:14;12.80;99.90
14769;DHT22;7476;49.404;11.152;2022-11-15T15:07:42;12.30;99.90
14769;DHT22;7476;49.404;11.152;2022-11-15T15:10:09;11.80;99.90
14769;DHT22;7476;49.404;11.152;2022-11-15T15:12:36;11.50;99.90
14769;DHT22;7476;49.404;11.152;2022-11-15T15:15:03;11.10;99.90
14769;DHT22;7476;49.404;11.152;2022-11-15T15:17:30;10.80;99.90
14769;DHT22;7476;49.404;11.152;2022-11-15T15:19:58;10.50;99.90
14769;DHT22;7476;49.404;11.152;2022-11-15T15:22:26;10.20;99.90
14769;DHT22;7476;49.404;11.152;2022-11-15T15:24:54;9.90;99.90
14769;DHT22;7476;49.404;11.152;2022-11-15T15:27:21;9.70;99.90
14769;DHT22;7476;49.404;11.152;2022-11-15T15:29:48;9.50;99.90
14769;DHT22;7476;49.404;11.152;2022-11-15T15:32:15;9.30;99.90
14769;DHT22;7476;49.404;11.152;2022-11-15T15:34:41;9.10;99.90
14769;DHT22;7476;49.404;11.152;2022-11-15T15:37:21;9.00;99.90
14769;DHT22;7476;49.404;11.152;2022-11-15T15:39:49;8.70;99.90
14769;DHT22;7476;49.404;11.152;2022-11-15T15:42:16;8.50;99.90
14769;DHT22;7476;49.404;11.152;2022-11-15T15:44:42;8.30;99.90
14769;DHT22;7476;49.404;11.152;2022-11-15T15:47:11;8.20;99.90
14769;DHT22;7476;49.404;11.152;2022-11-15T15:49:38;8.20;99.90
14769;DHT22;7476;49.404;11.152;2022-11-15T15:52:05;8.20;99.90
14769;DHT22;7476;49.404;11.152;2022-11-15T15:54:33;8.20;99.90
14769;DHT22;7476;49.404;11.152;2022-11-15T15:56:59;8.20;99.90
14769;DHT22;7476;49.404;11.152;2022-11-15T15:59:26;8.10;99.90
14769;DHT22;7476;49.404;11.152;2022-11-15T16:01:53;8.00;99.90
14769;DHT22;7476;49.404;11.152;2022-11-15T16:04:20;7.90;99.90
14769;DHT22;7476;49.404;11.152;2022-11-15T16:06:46;7.90;99.90
14769;DHT22;7476;49.404;11.152;2022-11-15T16:09:17;7.90;99.90
14769;DHT22;7476;49.404;11.152;2022-11-15T16:11:46;7.80;99.90